Time;durP1;ratioP1;P1;durP2;ratioP2;P2;SDS_P1;SDS_P2;PMS_P1;PMS_P2;Temp;Humidity;BMP_temperature;BMP_pressure;BME280_temperature;BME280_humidity;BME280_pressure;Samples;Min_cycle;Max_cycle;Signal;HPM_P1;HPM_P2
2022/08/14 00:00:34;;;;;;;1.80;1.60;;;;;;;28.63;35.00;96493.91;5115967;28;20119;-35
2022/08/14 00:02:59;;;;;;;1.52;1.42;;;;;;;28.66;34.71;96493.59;5115903;28;20027;-35
2022/08/14 00:05:25;;;;;;;2.00;1.35;;;;;;;28.63;34.57;96493.91;5116283;28;20098;-36
2022/08/14 00:07:50;;;;;;;1.52;1.42;;;;;;;28.65;34.61;96503.25;5115832;28;20388;-35
2022/08/14 00:10:19;;;;;;;1.58;1.48;;;;;;;28.65;34.86;96503.25;5115842;28;20032;-35
2022/08/14 00:12:53;;;;;;;2.03;1.60;;;;;;;28.64;34.90;96498.97;5115771;28;20019;-35
2022/08/14 00:15:45;;;;;;;2.30;1.50;;;;;;;28.62;34.94;96495.97;5115849;28;20019;-35
2022/08/14 00:18:16;;;;;;;1.40;1.30;;;;;;;28.65;34.58;96503.25;5114743;28;20039;-35
2022/08/14 00:20:42;;;;;;;1.88;1.67;;;;;;;28.66;34.59;96499.16;5115747;28;20106;-35
2022/08/14 00:23:09;;;;;;;1.67;1.58;;;;;;;28.63;34.45;96496.72;5115804;28;20032;-35
2022/08/14 00:25:35;;;;;;;1.60;1.50;;;;;;;28.59;34.64;96495.00;5115640;28;20028;-36
2022/08/14 00:28:01;;;;;;;1.30;1.20;;;;;;;28.63;34.42;96493.91;5115438;28;20106;-35
2022/08/14 00:30:27;;;;;;;1.60;1.50;;;;;;;28.58;34.53;96487.94;5115821;28;20065;-35
2022/08/14 00:32:52;;;;;;;1.75;1.65;;;;;;;28.57;34.51;96496.84;5115325;28;20488;-35
2022/08/14 00:35:18;;;;;;;1.70;1.60;;;;;;;28.59;34.41;96499.84;5115268;28;20031;-35
2022/08/14 00:37:46;;;;;;;1.85;1.45;;;;;;;28.62;34.25;96493.16;5115120;28;20377;-35
2022/08/14 00:40:15;;;;;;;1.60;1.50;;;;;;;28.57;34.33;96497.59;5115228;28;20472;-35
2022/08/14 00:42:41;;;;;;;3.35;1.70;;;;;;;28.58;34.13;96501.88;5115256;28;20027;-35
2022/08/14 00:45:09;;;;;;;1.70;1.60;;;;;;;28.49;34.35;96487.66;5115144;28;20042;-36
2022/08/14 00:47:34;;;;;;;1.52;1.42;;;;;;;28.49;34.17;96480.06;5115112;28;20032;-35
2022/08/14 00:50:03;;;;;;;2.25;1.50;;;;;;;28.53;34.10;96468.56;5115203;28;20160;-35
2022/08/14 00:52:30;;;;;;;1.60;1.50;;;;;;;28.52;33.87;96464.25;5114974;28;20571;-36
2022/08/14 00:54:56;;;;;;;1.55;1.45;;;;;;;28.51;34.23;96473.94;5115000;28;20365;-36
2022/08/14 00:57:28;;;;;;;1.60;1.50;;;;;;;28.50;34.13;96475.22;5114699;28;20030;-35
2022/08/14 00:59:56;;;;;;;1.52;1.42;;;;;;;28.38;34.32;96468.41;5114685;28;20469;-35
2022/08/14 01:02:25;;;;;;;1.77;1.48;;;;;;;28.40;34.32;96465.84;5114779;28;20488;-35
2022/08/14 01:04:56;;;;;;;1.70;1.60;;;;;;;28.46;34.06;96466.44;5114892;28;20385;-35
2022/08/14 01:07:24;;;;;;;2.65;1.50;;;;;;;28.37;34.56;96461.34;5114616;28;20096;-35
2022/08/14 01:09:52;;;;;;;1.50;1.40;;;;;;;28.32;33.92;96465.00;5113344;28;20030;-35
2022/08/14 01:12:19;;;;;;;1.48;1.38;;;;;;;28.40;34.39;96449.09;5114860;28;20031;-35
2022/08/14 01:14:45;;;;;;;1.35;1.25;;;;;;;28.50;33.92;96458.47;5114825;28;20515;-35
2022/08/14 01:17:11;;;;;;;1.40;1.30;;;;;;;28.40;34.36;96454.69;5114730;28;20023;-37
2022/08/14 01:22:20;;;;;;;1.65;1.55;;;;;;;28.44;34.14;96443.91;5114570;28;20115;-35
2022/08/14 01:24:47;;;;;;;1.45;1.35;;;;;;;28.42;34.14;96429.78;5114323;28;20473;-35
2022/08/14 01:27:17;;;;;;;2.30;1.50;;;;;;;28.43;33.93;96431.28;5114252;28;20028;-35
2022/08/14 01:29:45;;;;;;;1.50;1.40;;;;;;;28.39;34.11;96426.03;5114352;28;20098;-36
2022/08/14 01:32:11;;;;;;;1.55;1.40;;;;;;;28.42;33.86;96422.16;5114563;28;20035;-35
2022/08/14 01:34:37;;;;;;;1.50;1.40;;;;;;;28.42;34.22;96415.84;5114286;28;20028;-35
2022/08/14 01:37:03;;;;;;;1.90;1.70;;;;;;;28.41;34.14;96400.41;5114432;28;20091;-35
2022/08/14 01:39:29;;;;;;;1.73;1.60;;;;;;;28.42;33.93;96394.28;5113989;28;20053;-35
2022/08/14 01:41:57;;;;;;;1.50;1.40;;;;;;;28.42;34.03;96399.84;5114376;28;20023;-35
2022/08/14 01:44:28;;;;;;;1.65;1.55;;;;;;;28.27;34.09;96408.09;5113910;28;20020;-35
2022/08/14 01:46:57;;;;;;;2.90;1.40;;;;;;;28.36;33.95;96415.22;5114170;28;20107;-35
2022/08/14 01:49:23;;;;;;;1.77;1.50;;;;;;;28.37;33.98;96417.47;5113920;28;20028;-35
2022/08/14 01:51:53;;;;;;;1.90;1.73;;;;;;;28.44;34.32;96413.22;5113937;28;20019;-35
2022/08/14 01:54:20;;;;;;;2.88;1.80;;;;;;;28.44;34.17;96427.19;5113844;28;20076;-35
2022/08/14 01:56:47;;;;;;;1.67;1.58;;;;;;;28.45;34.23;96423.09;5113037;28;20023;-35
2022/08/14 01:59:16;;;;;;;1.80;1.70;;;;;;;28.40;34.21;96432.38;5113885;28;20085;-35
2022/08/14 02:01:42;;;;;;;1.38;1.27;;;;;;;28.45;34.12;96429.41;5113900;28;20072;-36
2022/08/14 02:04:08;;;;;;;1.50;1.40;;;;;;;28.44;34.04;96422.34;5113701;28;20425;-35
2022/08/14 02:06:36;;;;;;;1.75;1.48;;;;;;;28.43;34.23;96415.28;5113756;28;20069;-35
2022/08/14 02:09:07;;;;;;;1.95;1.38;;;;;;;28.49;33.84;96406.75;5113169;28;20023;-38
2022/08/14 02:11:34;;;;;;;1.83;1.38;;;;;;;28.48;34.15;96405.28;5114040;28;20030;-35
2022/08/14 02:14:06;;;;;;;1.55;1.45;;;;;;;28.46;34.26;96394.66;5113810;28;20019;-36
2022/08/14 02:16:37;;;;;;;1.70;1.60;;;;;;;28.49;33.88;96403.97;5113575;28;20122;-35
2022/08/14 02:19:07;;;;;;;1.58;1.48;;;;;;;28.40;34.37;96407.25;5113774;28;20431;-35
2022/08/14 02:21:35;;;;;;;2.08;1.40;;;;;;;28.45;34.06;96409.91;5113646;28;20027;-35
2022/08/14 02:24:02;;;;;;;1.65;1.38;;;;;;;28.43;34.02;96408.97;5113509;28;20023;-35
2022/08/14 02:26:30;;;;;;;1.40;1.30;;;;;;;28.43;34.36;96409.72;5113388;28;20035;-36
2022/08/14 02:29:00;;;;;;;1.50;1.40;;;;;;;28.43;34.06;96417.34;5113756;28;20088;-35
2022/08/14 02:31:34;;;;;;;1.80;1.50;;;;;;;28.39;34.32;96402.97;5113663;28;20054;-35
2022/08/14 02:34:10;;;;;;;2.08;1.70;;;;;;;28.42;34.20;96401.88;5113439;28;20039;-35
2022/08/14 02:36:37;;;;;;;2.00;1.80;;;;;;;28.44;34.27;96396.50;5113526;28;20054;-36
2022/08/14 02:39:06;;;;;;;1.48;1.30;;;;;;;28.45;34.21;96395.19;5113551;28;20024;-36
2022/08/14 02:41:33;;;;;;;2.40;1.67;;;;;;;28.41;34.43;96397.59;5113488;28;20023;-36
2022/08/14 02:43:59;;;;;;;2.05;1.40;;;;;;;28.44;33.99;96410.44;5113313;28;20024;-35
2022/08/14 02:46:24;;;;;;;1.60;1.50;;;;;;;28.41;34.21;96403.19;5112136;28;20492;-35
2022/08/14 02:48:50;;;;;;;1.90;1.65;;;;;;;28.44;34.21;96402.81;5113531;28;20023;-35
2022/08/14 02:51:16;;;;;;;1.65;1.50;;;;;;;28.41;33.97;96400.41;5111951;28;20019;-35
2022/08/14 02:53:44;;;;;;;2.10;1.52;;;;;;;28.38;34.41;96390.31;5113432;28;20058;-36
2022/08/14 02:56:14;;;;;;;1.48;1.38;;;;;;;28.43;34.10;96392.22;5113352;28;20089;-35
2022/08/14 02:58:42;;;;;;;2.00;1.60;;;;;;;28.40;34.32;96388.50;5113519;28;20370;-35
2022/08/14 03:01:09;;;;;;;1.75;1.63;;;;;;;28.40;34.12;96387.75;5113313;28;20080;-35
2022/08/14 03:03:36;;;;;;;1.50;1.40;;;;;;;28.41;34.24;96378.81;5113360;28;20479;-35
2022/08/14 03:06:07;;;;;;;1.50;1.40;;;;;;;28.38;34.54;96373.59;5112898;28;20048;-35
2022/08/14 03:08:33;;;;;;;1.52;1.40;;;;;;;28.41;34.37;96372.50;5113260;28;20028;-35
2022/08/14 03:11:03;;;;;;;2.10;1.60;;;;;;;28.37;34.37;96374.88;5113138;28;20047;-35
2022/08/14 03:13:30;;;;;;;3.25;1.50;;;;;;;28.38;34.45;96379.16;5113309;28;20023;-36
2022/08/14 03:15:55;;;;;;;1.70;1.55;;;;;;;28.41;34.26;96378.81;5113642;28;20038;-35
2022/08/14 03:18:22;;;;;;;1.85;1.67;;;;;;;28.42;34.61;96385.16;5113248;28;20024;-35
2022/08/14 03:20:48;;;;;;;2.20;1.85;;;;;;;28.41;34.47;96381.63;5115546;28;20098;-37
2022/08/14 03:23:13;;;;;;;1.55;1.45;;;;;;;28.38;34.46;96393.13;5116739;28;20115;-35
2022/08/14 03:25:39;;;;;;;1.63;1.52;;;;;;;28.37;34.61;96392.38;5116696;28;20423;-35
2022/08/14 03:28:06;;;;;;;2.58;1.70;;;;;;;28.31;34.93;96410.56;5116710;28;20107;-37
2022/08/14 03:30:32;;;;;;;1.95;1.50;;;;;;;28.36;34.72;96398.47;5116659;28;20370;-36
2022/08/14 03:32:58;;;;;;;1.80;1.60;;;;;;;28.40;34.54;96410.81;5116418;28;20028;-36
2022/08/14 03:35:24;;;;;;;1.65;1.45;;;;;;;28.36;34.79;96395.69;5116512;28;20114;-35
2022/08/14 03:37:53;;;;;;;1.52;1.42;;;;;;;28.37;34.49;96392.38;5116345;28;20023;-35
2022/08/14 03:40:20;;;;;;;1.52;1.42;;;;;;;28.41;34.61;96378.09;5116657;28;20464;-36
2022/08/14 03:42:45;;;;;;;1.80;1.70;;;;;;;28.38;34.40;96379.16;5116623;28;20370;-35
2022/08/14 03:45:12;;;;;;;1.65;1.50;;;;;;;28.39;34.24;96386.25;5116451;27;20027;-35
2022/08/14 03:47:41;;;;;;;1.77;1.50;;;;;;;28.38;34.67;96391.06;5116312;28;20110;-35
2022/08/14 03:50:09;;;;;;;2.35;1.73;;;;;;;28.38;34.80;96387.53;5116313;28;20024;-35
2022/08/14 03:52:41;;;;;;;1.75;1.50;;;;;;;28.37;34.35;96389.56;5116354;28;20488;-35
2022/08/14 03:55:10;;;;;;;2.20;1.40;;;;;;;28.32;34.65;96382.09;5116226;28;20016;-35
2022/08/14 03:57:36;;;;;;;2.38;1.50;;;;;;;28.39;34.48;96366.72;5116108;27;20023;-35
2022/08/14 04:00:09;;;;;;;1.80;1.70;;;;;;;28.33;34.72;96378.00;5115940;28;20091;-36
2022/08/14 04:02:37;;;;;;;1.80;1.40;;;;;;;28.35;34.61;96375.44;5115933;28;20051;-35
2022/08/14 04:05:05;;;;;;;1.60;1.45;;;;;;;28.37;34.46;96377.66;5115938;28;20136;-35
2022/08/14 04:07:32;;;;;;;1.63;1.50;;;;;;;28.33;34.96;96377.25;5115990;28;20047;-35
2022/08/14 04:09:58;;;;;;;2.33;1.85;;;;;;;28.33;34.70;96391.19;5115696;28;20023;-35
2022/08/14 04:12:23;;;;;;;1.85;1.40;;;;;;;28.32;34.70;96386.91;5115709;28;20601;-35
2022/08/14 04:14:51;;;;;;;1.65;1.40;;;;;;;28.35;34.76;96392.16;5115883;28;20045;-35
2022/08/14 04:17:17;;;;;;;1.75;1.60;;;;;;;28.34;34.87;96389.91;5115818;28;20435;-35
2022/08/14 04:19:44;;;;;;;1.80;1.60;;;;;;;28.36;34.63;96387.31;5115565;28;20047;-36
2022/08/14 04:22:10;;;;;;;2.03;1.70;;;;;;;28.30;34.81;96395.09;5115554;28;20524;-35
2022/08/14 04:24:35;;;;;;;2.00;1.50;;;;;;;28.32;34.58;96403.66;5115450;28;20119;-36
2022/08/14 04:27:01;;;;;;;1.65;1.55;;;;;;;28.35;34.85;96406.09;5115517;28;20034;-35
2022/08/14 04:29:27;;;;;;;1.40;1.30;;;;;;;28.36;34.60;96409.63;5115392;28;20020;-36
2022/08/14 04:31:55;;;;;;;1.67;1.58;;;;;;;28.34;34.78;96406.66;5114967;27;20030;-35
2022/08/14 04:48:12;;;;;;;2.25;2.05;;;;;;;28.29;34.96;96424.28;5072234;28;20121;-35
2022/08/14 04:50:50;;;;;;;1.75;1.65;;;;;;;28.30;34.87;96429.31;5072211;28;20032;-36
2022/08/14 04:53:22;;;;;;;1.90;1.70;;;;;;;28.30;34.87;96423.00;5072299;28;20032;-36
2022/08/14 04:55:49;;;;;;;1.50;1.40;;;;;;;28.32;34.83;96414.81;5072378;28;20020;-35
2022/08/14 04:58:20;;;;;;;1.70;1.40;;;;;;;28.32;34.77;96415.56;5072166;28;20112;-35
2022/08/14 05:00:49;;;;;;;1.40;1.30;;;;;;;28.34;34.91;96417.81;5072219;28;20051;-35
2022/08/14 05:03:18;;;;;;;1.73;1.63;;;;;;;28.35;34.64;96411.69;5072100;28;20032;-35
2022/08/14 05:05:44;;;;;;;1.50;1.40;;;;;;;28.29;34.89;96413.88;5071905;28;20445;-35
2022/08/14 05:08:13;;;;;;;2.00;1.65;;;;;;;28.27;35.00;96410.13;5072021;28;20028;-36
2022/08/14 05:10:44;;;;;;;1.50;1.40;;;;;;;28.30;35.20;96404.22;5073368;28;20032;-35
2022/08/14 05:13:12;;;;;;;1.53;1.43;;;;;;;28.27;35.25;96407.34;5114577;28;20076;-35
2022/08/14 05:15:39;;;;;;;1.88;1.70;;;;;;;28.32;34.84;96406.44;5114642;28;20031;-35
2022/08/14 05:18:13;;;;;;;1.75;1.65;;;;;;;28.32;34.79;96403.66;5114539;28;20038;-35
2022/08/14 05:20:42;;;;;;;1.85;1.30;;;;;;;28.30;34.88;96406.25;5114983;28;20084;-35
2022/08/14 05:23:08;;;;;;;1.55;1.45;;;;;;;28.27;35.04;96412.94;5114339;27;20027;-35
2022/08/14 05:25:35;;;;;;;1.65;1.48;;;;;;;28.31;35.07;96413.34;5114326;28;20023;-35
2022/08/14 05:28:18;;;;;;;1.80;1.70;;;;;;;28.28;35.00;96404.00;5114316;28;20032;-35
2022/08/14 05:30:45;;;;;;;;;;;;;;;28.27;35.25;96401.78;5114782;28;20107;-35
2022/08/14 05:33:11;;;;;;;2.72;1.70;;;;;;;28.28;35.01;96392.84;5114158;28;19994;-35
2022/08/14 05:35:37;;;;;;;1.95;1.30;;;;;;;28.28;35.14;96390.06;5114287;28;20050;-35
2022/08/14 05:38:07;;;;;;;1.70;1.60;;;;;;;28.28;34.99;96397.69;5114176;27;20058;-35
2022/08/14 05:40:33;;;;;;;1.52;1.42;;;;;;;28.27;35.34;96401.78;5114471;28;20027;-36
2022/08/14 05:42:59;;;;;;;1.85;1.60;;;;;;;28.27;35.29;96385.03;5113474;28;20068;-36
2022/08/14 05:45:25;;;;;;;1.48;1.38;;;;;;;28.26;35.44;96391.91;5114071;28;20034;-35
2022/08/14 05:47:50;;;;;;;1.85;1.67;;;;;;;28.25;35.50;96402.31;5114263;28;20023;-35
2022/08/14 05:50:16;;;;;;;1.67;1.58;;;;;;;28.24;35.18;96400.81;5114283;28;20030;-35
2022/08/14 05:52:42;;;;;;;1.80;1.70;;;;;;;28.26;35.45;96411.44;5113855;28;20016;-36
2022/08/14 05:55:09;;;;;;;2.10;1.70;;;;;;;28.28;35.08;96408.84;5113982;27;20015;-36
2022/08/14 05:57:55;;;;;;;1.40;1.30;;;;;;;28.24;35.58;96415.50;5113844;28;20027;-36
2022/08/14 06:00:23;;;;;;;2.85;2.00;;;;;;;28.28;35.29;96404.00;5113831;28;20481;-35
2022/08/14 06:02:49;;;;;;;2.00;1.65;;;;;;;28.28;35.47;96408.84;5113901;28;20102;-35
2022/08/14 06:05:15;;;;;;;2.25;1.52;;;;;;;28.27;35.57;96412.94;5113931;28;20444;-35
2022/08/14 06:07:41;;;;;;;2.05;1.83;;;;;;;28.26;35.47;96405.84;5113561;28;20047;-36
2022/08/14 06:10:08;;;;;;;2.00;1.70;;;;;;;28.18;35.47;96411.38;5113739;28;20027;-35
2022/08/14 06:12:35;;;;;;;2.30;1.60;;;;;;;28.06;35.71;96407.34;5113796;28;20035;-36
2022/08/14 06:15:00;;;;;;;2.22;1.60;;;;;;;28.18;35.69;96417.69;5113911;28;20102;-35
2022/08/14 06:17:26;;;;;;;1.70;1.60;;;;;;;28.20;35.67;96417.13;5113726;28;20103;-37
2022/08/14 06:19:52;;;;;;;1.60;1.50;;;;;;;28.23;35.55;96416.78;5113562;28;20492;-35
2022/08/14 06:22:18;;;;;;;2.08;1.88;;;;;;;28.21;35.43;96415.84;5113845;28;20057;-35
2022/08/14 06:24:43;;;;;;;1.77;1.55;;;;;;;28.20;35.48;96420.66;5113548;28;20019;-35
2022/08/14 06:27:09;;;;;;;1.80;1.65;;;;;;;28.26;35.36;96419.78;5113540;28;20020;-36
2022/08/14 06:29:36;;;;;;;1.98;1.77;;;;;;;28.27;35.71;96424.06;5113556;28;20047;-36
2022/08/14 06:32:02;;;;;;;1.77;1.40;;;;;;;28.20;35.78;96422.72;5113466;28;20380;-36
2022/08/14 06:34:28;;;;;;;1.88;1.73;;;;;;;28.17;35.72;96427.31;5112214;28;20031;-35
2022/08/14 06:36:55;;;;;;;2.47;1.50;;;;;;;28.07;36.28;96428.31;5113680;28;20026;-36
2022/08/14 06:39:21;;;;;;;1.65;1.55;;;;;;;28.17;35.69;96427.31;5113449;28;20016;-35
2022/08/14 06:41:47;;;;;;;2.08;1.60;;;;;;;28.04;36.04;96441.34;5113365;28;20484;-35
2022/08/14 06:44:12;;;;;;;1.50;1.40;;;;;;;28.13;35.90;96429.69;5113366;28;20047;-36
2022/08/14 06:46:38;;;;;;;2.35;1.67;;;;;;;28.21;35.89;96422.16;5113627;28;20155;-35
2022/08/14 06:49:04;;;;;;;2.67;1.45;;;;;;;28.19;35.78;96433.13;5113319;28;20522;-36
2022/08/14 06:51:29;;;;;;;1.90;1.70;;;;;;;28.17;35.86;96421.00;5113360;28;20031;-35
2022/08/14 06:53:55;;;;;;;1.88;1.60;;;;;;;28.18;35.74;96431.63;5114494;28;20027;-35
2022/08/14 06:56:22;;;;;;;1.83;1.63;;;;;;;28.22;35.99;96439.66;5117261;28;20094;-35
2022/08/14 06:58:48;;;;;;;2.00;1.80;;;;;;;28.19;36.01;96430.31;5117372;28;20024;-36
2022/08/14 07:06:42;;;;;;;1.70;1.60;;;;;;;28.19;35.88;96433.13;5116911;28;20096;-35
2022/08/14 07:09:10;;;;;;;1.95;1.75;;;;;;;28.15;36.08;96434.72;5117071;28;20031;-35
2022/08/14 07:11:36;;;;;;;2.10;1.90;;;;;;;28.10;35.99;96428.00;5117115;28;20020;-35
2022/08/14 07:14:02;;;;;;;3.20;1.90;;;;;;;28.14;35.97;96428.41;5116854;28;20050;-36
2022/08/14 07:16:28;;;;;;;2.17;1.70;;;;;;;28.18;36.12;96428.84;5117066;28;20465;-35
2022/08/14 07:18:53;;;;;;;1.80;1.70;;;;;;;28.00;36.16;96421.41;5116870;28;20035;-36
2022/08/14 07:21:19;;;;;;;1.90;1.55;;;;;;;28.03;36.28;96423.09;5116773;27;20449;-35
2022/08/14 07:23:44;;;;;;;2.05;1.88;;;;;;;28.07;35.84;96417.16;5116900;28;20031;-35
2022/08/14 07:26:12;;;;;;;2.85;1.90;;;;;;;28.10;35.87;96428.00;5116400;28;20542;-35
2022/08/14 07:28:39;;;;;;;1.80;1.70;;;;;;;28.06;36.09;96424.81;5117019;28;20449;-35
2022/08/14 07:31:08;;;;;;;2.15;1.98;;;;;;;28.14;35.87;96425.63;5116603;28;20024;-35
2022/08/14 07:33:43;;;;;;;2.60;1.90;;;;;;;28.03;36.14;96417.53;5116582;28;20024;-35
2022/08/14 07:36:10;;;;;;;1.80;1.70;;;;;;;28.09;36.25;96422.97;5116489;28;20024;-36
2022/08/14 07:38:36;;;;;;;2.42;2.10;;;;;;;28.03;36.41;96425.91;5116376;28;20088;-35
2022/08/14 07:41:04;;;;;;;1.85;1.75;;;;;;;28.09;36.17;96423.72;5116345;28;20472;-35
2022/08/14 07:43:29;;;;;;;2.20;2.00;;;;;;;27.90;36.35;96431.53;5116357;28;20473;-35
2022/08/14 07:45:55;;;;;;;2.92;2.38;;;;;;;27.85;36.46;96440.75;5116358;28;20028;-35
2022/08/14 07:48:20;;;;;;;1.95;1.80;;;;;;;27.93;36.28;96438.06;5116182;28;20032;-35
2022/08/14 07:50:49;;;;;;;2.03;1.83;;;;;;;27.99;36.31;96447.03;5116359;28;20030;-35
2022/08/14 07:53:15;;;;;;;2.70;2.35;;;;;;;27.97;36.39;96442.00;5116330;28;20362;-35
2022/08/14 07:55:41;;;;;;;2.33;2.13;;;;;;;27.93;36.43;96441.59;5116359;28;20019;-35
2022/08/14 07:58:07;;;;;;;2.35;2.08;;;;;;;28.06;35.94;96438.00;5116049;28;20442;-35
2022/08/14 08:00:33;;;;;;;2.22;2.03;;;;;;;28.10;35.59;96441.94;5116384;28;20024;-35
2022/08/14 08:02:58;;;;;;;2.13;1.90;;;;;;;28.05;36.19;96437.25;5115829;28;20020;-36
2022/08/14 08:05:25;;;;;;;2.60;2.38;;;;;;;28.12;36.12;96438.59;5114922;28;20034;-34
2022/08/14 08:07:52;;;;;;;2.47;2.28;;;;;;;28.13;35.93;96435.28;5115641;28;20038;-35
2022/08/14 08:10:31;;;;;;;2.38;2.08;;;;;;;28.10;35.67;96433.56;5114795;28;20038;-36
2022/08/14 08:13:01;;;;;;;2.42;2.22;;;;;;;28.17;35.51;96438.47;5114672;28;20498;-35
2022/08/14 08:15:31;;;;;;;2.47;2.28;;;;;;;28.10;35.68;96428.00;5115757;28;20020;-36
2022/08/14 08:17:58;;;;;;;3.05;2.20;;;;;;;28.14;35.78;96433.25;5115879;28;20028;-36
2022/08/14 08:20:25;;;;;;;2.55;2.33;;;;;;;27.99;36.05;96424.72;5115920;28;20027;-35
2022/08/14 08:22:52;;;;;;;2.47;2.28;;;;;;;28.07;36.13;96419.97;5115657;28;20035;-35
2022/08/14 08:25:18;;;;;;;2.75;2.38;;;;;;;28.14;35.74;96422.84;5115753;28;20457;-35
2022/08/14 08:27:56;;;;;;;5.07;2.70;;;;;;;27.56;36.83;96425.22;5114276;28;20442;-35
2022/08/14 08:30:21;;;;;;;2.40;2.20;;;;;;;27.78;36.21;96421.94;5115541;28;20537;-35
2022/08/14 08:32:48;;;;;;;2.17;2.05;;;;;;;27.94;36.35;96425.63;5115349;28;20144;-35
2022/08/14 08:35:19;;;;;;;2.90;2.55;;;;;;;28.08;35.92;96427.78;5115528;28;20102;-35
2022/08/14 08:37:47;;;;;;;2.60;2.40;;;;;;;28.04;35.95;96432.22;5115293;28;20520;-35
2022/08/14 08:40:34;;;;;;;2.50;2.30;;;;;;;28.06;35.67;96424.81;5115306;28;20416;-35
2022/08/14 08:43:00;;;;;;;2.53;2.20;;;;;;;27.78;36.48;96438.66;5115298;28;20032;-35
2022/08/14 08:45:25;;;;;;;2.33;2.13;;;;;;;27.95;35.95;96435.47;5115363;28;20030;-35
2022/08/14 08:47:51;;;;;;;2.50;2.30;;;;;;;27.67;36.31;96431.31;5115204;28;20031;-36
2022/08/14 08:50:26;;;;;;;2.38;2.17;;;;;;;28.04;35.88;96432.97;5115157;28;20019;-35
2022/08/14 08:52:54;;;;;;;2.80;2.60;;;;;;;27.76;35.99;96433.63;5115276;27;20434;-35
2022/08/14 08:55:29;;;;;;;2.92;2.70;;;;;;;27.98;35.97;96429.56;5114918;28;20042;-35
2022/08/14 08:58:05;;;;;;;3.38;2.20;;;;;;;28.08;35.91;96436.16;5114881;28;20027;-35
2022/08/14 09:00:33;;;;;;;3.00;2.80;;;;;;;27.89;36.02;96439.13;5114925;28;20034;-35
2022/08/14 09:03:06;;;;;;;2.70;2.50;;;;;;;27.95;35.97;96430.63;5114753;28;20028;-36
2022/08/14 09:05:34;;;;;;;2.83;2.63;;;;;;;28.01;35.92;96430.50;5114608;28;20430;-35
2022/08/14 09:08:17;;;;;;;3.00;2.53;;;;;;;27.78;35.56;96430.28;5114787;28;20081;-35
2022/08/14 09:10:44;;;;;;;2.85;2.63;;;;;;;27.93;35.72;96427.66;5114780;28;20039;-35
2022/08/14 09:13:11;;;;;;;2.60;2.40;;;;;;;28.00;35.47;96431.81;5114655;28;20023;-35
2022/08/14 09:15:46;;;;;;;2.55;2.35;;;;;;;28.07;35.70;96431.13;5114598;28;20019;-35
2022/08/14 09:18:13;;;;;;;2.60;2.40;;;;;;;27.95;35.78;96424.31;5097891;28;20469;-35
2022/08/14 09:20:45;;;;;;;2.60;2.40;;;;;;;28.04;35.59;96432.97;5098731;28;20031;-35
2022/08/14 09:23:11;;;;;;;3.30;2.30;;;;;;;28.03;35.72;96428.69;5113565;28;20054;-36
2022/08/14 09:25:40;;;;;;;2.47;2.20;;;;;;;28.12;35.38;96419.09;5114522;28;20434;-35
2022/08/14 09:28:06;;;;;;;3.30;2.60;;;;;;;28.10;35.36;96428.00;5103453;28;20038;-35
2022/08/14 09:30:35;;;;;;;2.80;2.50;;;;;;;27.93;35.55;96424.88;5112880;28;20454;-35
2022/08/14 09:33:01;;;;;;;3.50;2.50;;;;;;;27.58;35.78;96434.53;5108571;28;20377;-35
2022/08/14 09:35:47;;;;;;;2.92;2.65;;;;;;;27.76;35.48;96427.28;5097549;28;20103;-35
2022/08/14 09:38:45;;;;;;;3.03;2.60;;;;;;;28.03;34.82;96437.03;5094130;28;20074;-35
2022/08/14 09:41:49;;;;;;;2.88;2.67;;;;;;;28.14;35.03;96431.19;5085974;28;20032;-35
2022/08/14 09:44:32;;;;;;;3.75;2.90;;;;;;;28.11;35.19;96434.31;5092652;28;20133;-36
2022/08/14 09:46:57;;;;;;;3.17;2.75;;;;;;;28.11;35.08;96429.50;5093751;28;20020;-35
2022/08/14 09:49:36;;;;;;;3.03;2.45;;;;;;;28.02;33.58;96423.66;5093610;28;20498;-35
2022/08/14 09:52:05;;;;;;;6.10;2.90;;;;;;;27.91;34.83;96427.44;5093769;28;20035;-35
2022/08/14 09:54:47;;;;;;;2.88;2.67;;;;;;;27.88;35.06;96423.72;5093595;28;20046;-35
2022/08/14 09:57:26;;;;;;;2.90;2.50;;;;;;;27.64;35.42;96420.47;5094071;28;20048;-35
2022/08/14 09:59:52;;;;;;;3.13;2.63;;;;;;;27.82;34.18;96413.97;5093809;28;20420;-35
2022/08/14 10:02:18;;;;;;;2.70;2.50;;;;;;;27.97;34.81;96416.91;5093708;28;20031;-35
2022/08/14 10:04:45;;;;;;;2.88;2.60;;;;;;;27.96;34.59;96407.03;5093348;28;20108;-35
2022/08/14 10:07:11;;;;;;;2.92;2.53;;;;;;;27.88;33.81;96409.03;5093342;28;20127;-35
2022/08/14 10:09:49;;;;;;;3.45;2.70;;;;;;;27.98;34.56;96409.28;5093397;28;20075;-36
2022/08/14 10:12:14;;;;;;;2.70;2.50;;;;;;;27.92;34.07;96409.44;5092010;28;20492;-35
2022/08/14 10:14:40;;;;;;;2.92;2.50;;;;;;;28.13;33.74;96399.03;5093764;28;20016;-35
2022/08/14 10:17:06;;;;;;;2.60;2.40;;;;;;;28.04;33.14;96401.56;5093431;28;20381;-35
2022/08/14 10:19:34;;;;;;;2.53;2.33;;;;;;;28.08;34.13;96397.13;5093188;28;20052;-35
2022/08/14 10:22:09;;;;;;;2.72;2.53;;;;;;;28.14;34.63;96397.75;5093677;28;20020;-35
2022/08/14 10:24:40;;;;;;;2.17;1.98;;;;;;;28.23;34.10;96397.28;5093207;28;20496;-35
2022/08/14 10:27:22;;;;;;;2.83;2.55;;;;;;;28.25;33.46;96393.94;5093481;28;20077;-35
2022/08/14 10:30:03;;;;;;;3.35;2.42;;;;;;;28.31;33.90;96380.63;5095791;28;20024;-35
2022/08/14 10:32:28;;;;;;;2.70;2.50;;;;;;;28.34;33.90;96381.53;5097348;28;20024;-35
2022/08/14 10:35:08;;;;;;;3.00;2.58;;;;;;;28.32;33.63;96386.91;5097330;28;20043;-35
2022/08/14 10:37:39;;;;;;;3.20;2.80;;;;;;;28.29;34.01;96388.78;5097254;28;20020;-35
2022/08/14 10:40:06;;;;;;;3.65;2.50;;;;;;;28.37;33.58;96378.41;5097206;28;20032;-35
2022/08/14 10:42:40;;;;;;;4.30;2.75;;;;;;;28.39;33.43;96375.84;5097259;28;20050;-36
2022/08/14 10:45:28;;;;;;;3.35;2.78;;;;;;;28.37;33.40;96378.41;5097142;28;20031;-35
2022/08/14 10:47:54;;;;;;;2.50;2.30;;;;;;;28.39;33.29;96373.03;5097003;28;20027;-36
2022/08/14 10:50:37;;;;;;;2.25;2.05;;;;;;;28.45;33.00;96372.88;5097207;28;20024;-35
2022/08/14 10:53:04;;;;;;;2.38;2.17;;;;;;;28.37;32.21;96372.84;5096973;28;20355;-35
2022/08/14 10:55:40;;;;;;;2.90;2.35;;;;;;;28.46;33.28;96375.13;5097120;28;20016;-37
2022/08/14 10:58:12;;;;;;;3.75;2.60;;;;;;;28.51;33.15;96371.44;5096971;28;20077;-35
2022/08/14 11:00:39;;;;;;;2.80;2.20;;;;;;;28.43;33.25;96369.91;5096979;28;20020;-36
2022/08/14 11:03:12;;;;;;;4.72;2.60;;;;;;;28.43;33.08;96370.66;5096655;28;20100;-35
2022/08/14 11:05:39;;;;;;;;;;;;;;;28.44;33.09;96365.81;5096958;28;20020;-35
2022/08/14 11:08:05;;;;;;;4.85;2.42;;;;;;;28.44;33.15;96365.81;5096662;28;19916;-35
2022/08/14 11:10:54;;;;;;;2.97;2.30;;;;;;;28.50;33.02;96369.97;5095721;28;20027;-35
2022/08/14 11:13:22;;;;;;;2.40;2.20;;;;;;;28.48;32.54;96363.44;5096427;28;20392;-35
2022/08/14 11:15:48;;;;;;;2.50;2.30;;;;;;;28.41;33.08;96378.09;5096635;28;20046;-35
2022/08/14 11:18:14;;;;;;;2.35;2.15;;;;;;;28.53;32.81;96374.44;5096647;28;20020;-35
2022/08/14 11:20:49;;;;;;;2.30;2.10;;;;;;;28.52;31.77;96372.19;5096382;28;20024;-35
2022/08/14 11:23:18;;;;;;;2.20;1.98;;;;;;;28.54;32.01;96364.03;5096321;28;20034;-35
2022/08/14 11:25:45;;;;;;;2.53;2.28;;;;;;;28.51;32.32;96371.44;5096321;28;20020;-35
2022/08/14 11:28:15;;;;;;;2.35;2.15;;;;;;;28.53;32.33;96371.66;5096231;28;20442;-35
2022/08/14 11:30:43;;;;;;;2.33;2.08;;;;;;;28.57;32.07;96368.50;5096265;28;20028;-35
2022/08/14 11:33:10;;;;;;;2.28;2.08;;;;;;;28.58;31.82;96367.19;5096116;28;20029;-35
2022/08/14 11:35:37;;;;;;;2.25;2.05;;;;;;;28.58;32.22;96367.19;5096074;28;20051;-35
2022/08/14 11:38:04;;;;;;;2.50;2.30;;;;;;;28.57;32.10;96362.91;5095953;28;20024;-35
2022/08/14 11:40:35;;;;;;;2.40;2.20;;;;;;;28.63;31.99;96366.31;5095083;28;20042;-36
2022/08/14 11:43:04;;;;;;;4.82;2.25;;;;;;;28.58;31.82;96367.19;5095907;28;20031;-35
2022/08/14 11:45:33;;;;;;;2.35;2.15;;;;;;;28.53;32.19;96360.50;5095846;28;20031;-35
2022/08/14 11:48:00;;;;;;;2.33;2.13;;;;;;;28.58;31.80;96361.63;5096089;28;20020;-35
2022/08/14 11:50:31;;;;;;;2.53;2.17;;;;;;;28.59;31.79;96366.66;5095882;28;20115;-35
2022/08/14 11:52:58;;;;;;;2.08;1.88;;;;;;;28.65;31.12;96362.97;5095808;28;20099;-35
2022/08/14 11:55:25;;;;;;;2.40;2.20;;;;;;;28.64;31.15;96367.06;5095747;28;20354;-35
2022/08/14 11:58:04;;;;;;;2.25;2.05;;;;;;;28.66;31.82;96358.91;5094425;28;20023;-35
2022/08/14 12:00:30;;;;;;;2.40;2.15;;;;;;;28.68;31.65;96357.06;5096005;28;20047;-35
2022/08/14 12:02:58;;;;;;;2.22;1.98;;;;;;;28.72;31.21;96360.22;5095534;28;20077;-35